sensor_id;sensor_type;location;lat;lon;timestamp;P1;durP1;ratioP1;P2;durP2;ratioP2
15449;SDS011;7826;49.784;9.934;2023-03-01T00:01:15;9.57;;;5.13;;
15449;SDS011;7826;49.784;9.934;2023-03-01T00:03:44;8.93;;;5.40;;
15449;SDS011;7826;49.784;9.934;2023-03-01T00:06:11;12.70;;;5.33;;
15449;SDS011;7826;49.784;9.934;2023-03-01T00:08:37;13.53;;;5.80;;
15449;SDS011;7826;49.784;9.934;2023-03-01T00:11:08;8.47;;;4.97;;
15449;SDS011;7826;49.784;9.934;2023-03-01T00:13:35;8.07;;;5.27;;
15449;SDS011;7826;49.784;9.934;2023-03-01T00:16:03;9.63;;;5.47;;
15449;SDS011;7826;49.784;9.934;2023-03-01T00:18:30;9.40;;;5.20;;
15449;SDS011;7826;49.784;9.934;2023-03-01T00:20:56;7.93;;;4.83;;
15449;SDS011;7826;49.784;9.934;2023-03-01T00:23:22;11.60;;;4.70;;
15449;SDS011;7826;49.784;9.934;2023-03-01T00:25:49;9.47;;;5.90;;
15449;SDS011;7826;49.784;9.934;2023-03-01T00:28:16;10.20;;;4.93;;
15449;SDS011;7826;49.784;9.934;2023-03-01T00:30:43;11.90;;;4.70;;
15449;SDS011;7826;49.784;9.934;2023-03-01T00:33:10;11.27;;;5.30;;
15449;SDS011;7826;49.784;9.934;2023-03-01T00:35:36;15.37;;;6.30;;
15449;SDS011;7826;49.784;9.934;2023-03-01T00:38:03;11.20;;;4.83;;
15449;SDS011;7826;49.784;9.934;2023-03-01T00:40:30;11.70;;;6.13;;
15449;SDS011;7826;49.784;9.934;2023-03-01T00:42:58;10.40;;;5.90;;
15449;SDS011;7826;49.784;9.934;2023-03-01T00:45:25;9.57;;;5.03;;
15449;SDS011;7826;49.784;9.934;2023-03-01T00:47:52;10.07;;;4.93;;
15449;SDS011;7826;49.784;9.934;2023-03-01T00:50:19;9.57;;;5.47;;
15449;SDS011;7826;49.784;9.934;2023-03-01T00:52:45;8.40;;;4.90;;
15449;SDS011;7826;49.784;9.934;2023-03-01T00:55:12;9.87;;;5.80;;
15449;SDS011;7826;49.784;9.934;2023-03-01T00:57:38;10.30;;;5.13;;
15449;SDS011;7826;49.784;9.934;2023-03-01T01:00:05;10.13;;;6.13;;
15449;SDS011;7826;49.784;9.934;2023-03-01T01:02:33;8.27;;;5.23;;
15449;SDS011;7826;49.784;9.934;2023-03-01T01:04:59;10.33;;;5.40;;
15449;SDS011;7826;49.784;9.934;2023-03-01T01:07:25;13.50;;;6.03;;
15449;SDS011;7826;49.784;9.934;2023-03-01T01:09:52;12.47;;;5.00;;
15449;SDS011;7826;49.784;9.934;2023-03-01T01:12:18;10.43;;;4.77;;
15449;SDS011;7826;49.784;9.934;2023-03-01T01:14:44;8.47;;;4.83;;
15449;SDS011;7826;49.784;9.934;2023-03-01T01:17:11;9.43;;;4.30;;
15449;SDS011;7826;49.784;9.934;2023-03-01T01:19:38;11.43;;;5.13;;
15449;SDS011;7826;49.784;9.934;2023-03-01T01:22:04;10.63;;;5.37;;
15449;SDS011;7826;49.784;9.934;2023-03-01T01:24:30;13.93;;;6.00;;
15449;SDS011;7826;49.784;9.934;2023-03-01T01:26:56;8.50;;;5.17;;
15449;SDS011;7826;49.784;9.934;2023-03-01T01:29:22;11.20;;;5.47;;
15449;SDS011;7826;49.784;9.934;2023-03-01T01:31:48;6.03;;;4.23;;
15449;SDS011;7826;49.784;9.934;2023-03-01T01:34:16;9.73;;;5.30;;
15449;SDS011;7826;49.784;9.934;2023-03-01T01:36:48;9.70;;;4.97;;
15449;SDS011;7826;49.784;9.934;2023-03-01T01:39:21;10.90;;;4.50;;
15449;SDS011;7826;49.784;9.934;2023-03-01T01:41:48;10.30;;;5.03;;
15449;SDS011;7826;49.784;9.934;2023-03-01T01:46:42;7.63;;;4.93;;
15449;SDS011;7826;49.784;9.934;2023-03-01T01:54:50;8.93;;;4.73;;
15449;SDS011;7826;49.784;9.934;2023-03-01T01:57:30;8.47;;;5.13;;
15449;SDS011;7826;49.784;9.934;2023-03-01T02:00:00;7.93;;;5.57;;
15449;SDS011;7826;49.784;9.934;2023-03-01T02:02:33;8.43;;;5.00;;
15449;SDS011;7826;49.784;9.934;2023-03-01T02:05:17;10.03;;;5.10;;
15449;SDS011;7826;49.784;9.934;2023-03-01T02:08:02;12.00;;;4.73;;
15449;SDS011;7826;49.784;9.934;2023-03-01T02:10:28;12.20;;;5.13;;
15449;SDS011;7826;49.784;9.934;2023-03-01T02:12:58;11.40;;;4.63;;
15449;SDS011;7826;49.784;9.934;2023-03-01T02:15:26;9.87;;;5.10;;
15449;SDS011;7826;49.784;9.934;2023-03-01T02:17:53;11.90;;;4.97;;
15449;SDS011;7826;49.784;9.934;2023-03-01T02:20:23;8.77;;;4.97;;
15449;SDS011;7826;49.784;9.934;2023-03-01T02:23:11;13.73;;;5.30;;
15449;SDS011;7826;49.784;9.934;2023-03-01T02:25:46;9.27;;;5.07;;
15449;SDS011;7826;49.784;9.934;2023-03-01T02:28:37;12.03;;;5.67;;
15449;SDS011;7826;49.784;9.934;2023-03-01T02:31:06;10.87;;;5.80;;
15449;SDS011;7826;49.784;9.934;2023-03-01T02:33:52;8.30;;;4.90;;
15449;SDS011;7826;49.784;9.934;2023-03-01T02:36:30;10.23;;;5.73;;
15449;SDS011;7826;49.784;9.934;2023-03-01T02:39:02;8.50;;;4.70;;
15449;SDS011;7826;49.784;9.934;2023-03-01T02:41:32;6.83;;;4.67;;
15449;SDS011;7826;49.784;9.934;2023-03-01T02:44:02;9.30;;;4.97;;
15449;SDS011;7826;49.784;9.934;2023-03-01T02:46:29;8.90;;;5.50;;
15449;SDS011;7826;49.784;9.934;2023-03-01T02:48:56;9.33;;;5.10;;
15449;SDS011;7826;49.784;9.934;2023-03-01T02:54:08;8.63;;;5.23;;
15449;SDS011;7826;49.784;9.934;2023-03-01T02:56:36;10.27;;;6.13;;
15449;SDS011;7826;49.784;9.934;2023-03-01T02:59:02;9.60;;;5.30;;
15449;SDS011;7826;49.784;9.934;2023-03-01T03:01:29;9.63;;;5.53;;
15449;SDS011;7826;49.784;9.934;2023-03-01T03:04:05;10.57;;;5.03;;
15449;SDS011;7826;49.784;9.934;2023-03-01T03:06:34;7.73;;;4.90;;
15449;SDS011;7826;49.784;9.934;2023-03-01T03:09:00;12.60;;;5.90;;
15449;SDS011;7826;49.784;9.934;2023-03-01T03:11:27;11.70;;;5.23;;
15449;SDS011;7826;49.784;9.934;2023-03-01T03:13:53;9.60;;;5.20;;
15449;SDS011;7826;49.784;9.934;2023-03-01T03:16:20;7.83;;;5.67;;
15449;SDS011;7826;49.784;9.934;2023-03-01T03:18:46;12.97;;;5.93;;
15449;SDS011;7826;49.784;9.934;2023-03-01T03:21:12;11.90;;;5.30;;
15449;SDS011;7826;49.784;9.934;2023-03-01T03:23:39;8.07;;;4.73;;
15449;SDS011;7826;49.784;9.934;2023-03-01T03:26:05;10.57;;;5.17;;
15449;SDS011;7826;49.784;9.934;2023-03-01T03:28:32;12.63;;;5.53;;
15449;SDS011;7826;49.784;9.934;2023-03-01T03:30:59;9.00;;;5.80;;
15449;SDS011;7826;49.784;9.934;2023-03-01T03:33:29;13.23;;;5.53;;
15449;SDS011;7826;49.784;9.934;2023-03-01T03:35:56;9.37;;;4.93;;
15449;SDS011;7826;49.784;9.934;2023-03-01T03:38:22;12.63;;;5.33;;
15449;SDS011;7826;49.784;9.934;2023-03-01T03:43:18;10.30;;;5.37;;
15449;SDS011;7826;49.784;9.934;2023-03-01T03:45:46;10.47;;;5.20;;
15449;SDS011;7826;49.784;9.934;2023-03-01T03:48:14;8.83;;;4.43;;
15449;SDS011;7826;49.784;9.934;2023-03-01T03:50:41;8.47;;;5.53;;
15449;SDS011;7826;49.784;9.934;2023-03-01T03:53:12;12.37;;;5.40;;
15449;SDS011;7826;49.784;9.934;2023-03-01T03:55:38;10.00;;;5.83;;
15449;SDS011;7826;49.784;9.934;2023-03-01T03:58:09;10.73;;;5.47;;
15449;SDS011;7826;49.784;9.934;2023-03-01T04:00:37;9.93;;;5.17;;
15449;SDS011;7826;49.784;9.934;2023-03-01T04:03:08;10.20;;;5.40;;
15449;SDS011;7826;49.784;9.934;2023-03-01T04:05:35;8.70;;;4.77;;
15449;SDS011;7826;49.784;9.934;2023-03-01T04:08:02;12.93;;;5.37;;
15449;SDS011;7826;49.784;9.934;2023-03-01T04:10:33;9.93;;;5.63;;
15449;SDS011;7826;49.784;9.934;2023-03-01T04:13:03;8.70;;;5.07;;
15449;SDS011;7826;49.784;9.934;2023-03-01T04:15:30;13.97;;;5.93;;
15449;SDS011;7826;49.784;9.934;2023-03-01T04:17:58;10.27;;;5.73;;
15449;SDS011;7826;49.784;9.934;2023-03-01T04:20:29;9.60;;;5.80;;
15449;SDS011;7826;49.784;9.934;2023-03-01T04:23:00;15.63;;;4.23;;
15449;SDS011;7826;49.784;9.934;2023-03-01T04:25:48;8.87;;;4.80;;
15449;SDS011;7826;49.784;9.934;2023-03-01T04:28:28;9.23;;;4.83;;
15449;SDS011;7826;49.784;9.934;2023-03-01T04:31:03;10.03;;;5.10;;
15449;SDS011;7826;49.784;9.934;2023-03-01T04:33:42;9.77;;;5.53;;
15449;SDS011;7826;49.784;9.934;2023-03-01T04:36:15;8.53;;;5.03;;
15449;SDS011;7826;49.784;9.934;2023-03-01T04:38:42;9.70;;;4.40;;
15449;SDS011;7826;49.784;9.934;2023-03-01T04:41:13;10.40;;;5.03;;
15449;SDS011;7826;49.784;9.934;2023-03-01T04:43:41;12.30;;;5.33;;
15449;SDS011;7826;49.784;9.934;2023-03-01T04:46:08;9.60;;;5.13;;
15449;SDS011;7826;49.784;9.934;2023-03-01T04:48:37;10.33;;;5.47;;
15449;SDS011;7826;49.784;9.934;2023-03-01T04:51:05;9.43;;;4.90;;
15449;SDS011;7826;49.784;9.934;2023-03-01T04:53:32;11.17;;;5.63;;
15449;SDS011;7826;49.784;9.934;2023-03-01T04:55:58;9.00;;;4.73;;
15449;SDS011;7826;49.784;9.934;2023-03-01T04:58:25;12.00;;;4.23;;
15449;SDS011;7826;49.784;9.934;2023-03-01T05:00:52;9.47;;;4.90;;
15449;SDS011;7826;49.784;9.934;2023-03-01T05:03:19;7.90;;;4.97;;
15449;SDS011;7826;49.784;9.934;2023-03-01T05:05:47;8.50;;;5.30;;
15449;SDS011;7826;49.784;9.934;2023-03-01T05:08:15;10.20;;;5.70;;
15449;SDS011;7826;49.784;9.934;2023-03-01T05:10:55;14.20;;;6.57;;
15449;SDS011;7826;49.784;9.934;2023-03-01T05:13:21;6.80;;;4.43;;
15449;SDS011;7826;49.784;9.934;2023-03-01T05:15:54;8.93;;;4.90;;
15449;SDS011;7826;49.784;9.934;2023-03-01T05:18:22;9.60;;;5.30;;
15449;SDS011;7826;49.784;9.934;2023-03-01T05:20:55;8.50;;;4.83;;
15449;SDS011;7826;49.784;9.934;2023-03-01T05:23:26;10.50;;;4.90;;
15449;SDS011;7826;49.784;9.934;2023-03-01T05:25:52;12.20;;;4.73;;
15449;SDS011;7826;49.784;9.934;2023-03-01T05:28:19;13.23;;;6.47;;
15449;SDS011;7826;49.784;9.934;2023-03-01T05:30:46;16.60;;;9.23;;
15449;SDS011;7826;49.784;9.934;2023-03-01T05:33:12;11.80;;;6.23;;
15449;SDS011;7826;49.784;9.934;2023-03-01T05:35:44;13.77;;;7.23;;
15449;SDS011;7826;49.784;9.934;2023-03-01T05:38:11;13.80;;;6.03;;
15449;SDS011;7826;49.784;9.934;2023-03-01T05:40:45;14.70;;;7.13;;
15449;SDS011;7826;49.784;9.934;2023-03-01T05:43:13;13.17;;;5.50;;
15449;SDS011;7826;49.784;9.934;2023-03-01T05:45:40;10.93;;;5.90;;
15449;SDS011;7826;49.784;9.934;2023-03-01T05:48:07;10.43;;;5.27;;
15449;SDS011;7826;49.784;9.934;2023-03-01T05:50:37;10.23;;;4.73;;
15449;SDS011;7826;49.784;9.934;2023-03-01T05:53:06;12.20;;;5.63;;
15449;SDS011;7826;49.784;9.934;2023-03-01T05:55:35;13.30;;;6.47;;
15449;SDS011;7826;49.784;9.934;2023-03-01T05:58:02;12.50;;;6.00;;
15449;SDS011;7826;49.784;9.934;2023-03-01T06:00:30;9.47;;;6.00;;
15449;SDS011;7826;49.784;9.934;2023-03-01T06:02:58;10.90;;;6.47;;
15449;SDS011;7826;49.784;9.934;2023-03-01T06:05:25;10.77;;;6.17;;
15449;SDS011;7826;49.784;9.934;2023-03-01T06:07:52;9.00;;;4.73;;
15449;SDS011;7826;49.784;9.934;2023-03-01T06:10:19;9.80;;;5.77;;
15449;SDS011;7826;49.784;9.934;2023-03-01T06:12:47;15.73;;;5.90;;
15449;SDS011;7826;49.784;9.934;2023-03-01T06:15:14;7.87;;;4.87;;
15449;SDS011;7826;49.784;9.934;2023-03-01T06:17:42;11.73;;;5.47;;
15449;SDS011;7826;49.784;9.934;2023-03-01T06:20:14;9.17;;;6.00;;
15449;SDS011;7826;49.784;9.934;2023-03-01T06:22:42;9.93;;;5.50;;
15449;SDS011;7826;49.784;9.934;2023-03-01T06:25:10;13.13;;;5.77;;
15449;SDS011;7826;49.784;9.934;2023-03-01T06:27:38;18.60;;;6.47;;
15449;SDS011;7826;49.784;9.934;2023-03-01T06:30:05;12.87;;;4.97;;
15449;SDS011;7826;49.784;9.934;2023-03-01T06:32:32;13.07;;;5.67;;
15449;SDS011;7826;49.784;9.934;2023-03-01T06:34:59;9.77;;;5.17;;
15449;SDS011;7826;49.784;9.934;2023-03-01T06:37:25;15.00;;;6.33;;
15449;SDS011;7826;49.784;9.934;2023-03-01T06:39:51;11.53;;;5.27;;
15449;SDS011;7826;49.784;9.934;2023-03-01T06:42:17;9.77;;;5.27;;
15449;SDS011;7826;49.784;9.934;2023-03-01T06:44:44;12.23;;;5.97;;
15449;SDS011;7826;49.784;9.934;2023-03-01T06:47:11;10.57;;;6.17;;
15449;SDS011;7826;49.784;9.934;2023-03-01T06:49:37;13.53;;;6.40;;
15449;SDS011;7826;49.784;9.934;2023-03-01T06:52:03;13.70;;;6.20;;
15449;SDS011;7826;49.784;9.934;2023-03-01T06:54:30;12.87;;;6.30;;
15449;SDS011;7826;49.784;9.934;2023-03-01T06:56:56;13.20;;;6.17;;
15449;SDS011;7826;49.784;9.934;2023-03-01T06:59:22;11.47;;;6.50;;
15449;SDS011;7826;49.784;9.934;2023-03-01T07:01:48;10.67;;;6.33;;
15449;SDS011;7826;49.784;9.934;2023-03-01T07:04:15;14.03;;;6.80;;
15449;SDS011;7826;49.784;9.934;2023-03-01T07:06:41;11.40;;;5.43;;
15449;SDS011;7826;49.784;9.934;2023-03-01T07:09:07;10.97;;;6.33;;
15449;SDS011;7826;49.784;9.934;2023-03-01T07:11:33;11.10;;;6.63;;
15449;SDS011;7826;49.784;9.934;2023-03-01T07:13:59;13.73;;;6.37;;
15449;SDS011;7826;49.784;9.934;2023-03-01T07:16:26;9.90;;;5.93;;
15449;SDS011;7826;49.784;9.934;2023-03-01T07:18:52;12.77;;;6.67;;
15449;SDS011;7826;49.784;9.934;2023-03-01T07:21:18;13.03;;;7.30;;
15449;SDS011;7826;49.784;9.934;2023-03-01T07:23:46;10.63;;;5.93;;
15449;SDS011;7826;49.784;9.934;2023-03-01T07:26:14;12.10;;;5.63;;
15449;SDS011;7826;49.784;9.934;2023-03-01T07:28:40;13.33;;;6.47;;
15449;SDS011;7826;49.784;9.934;2023-03-01T07:31:06;10.77;;;6.77;;
15449;SDS011;7826;49.784;9.934;2023-03-01T07:33:32;9.83;;;6.03;;
15449;SDS011;7826;49.784;9.934;2023-03-01T07:35:59;14.50;;;7.47;;
15449;SDS011;7826;49.784;9.934;2023-03-01T07:38:27;16.67;;;6.63;;
15449;SDS011;7826;49.784;9.934;2023-03-01T07:40:57;14.80;;;7.07;;
15449;SDS011;7826;49.784;9.934;2023-03-01T07:43:24;12.87;;;7.80;;
15449;SDS011;7826;49.784;9.934;2023-03-01T07:45:51;9.73;;;6.50;;
15449;SDS011;7826;49.784;9.934;2023-03-01T07:48:17;12.77;;;6.53;;
15449;SDS011;7826;49.784;9.934;2023-03-01T07:50:43;14.93;;;6.87;;
15449;SDS011;7826;49.784;9.934;2023-03-01T07:53:10;16.73;;;7.83;;
15449;SDS011;7826;49.784;9.934;2023-03-01T07:55:36;12.23;;;6.17;;
15449;SDS011;7826;49.784;9.934;2023-03-01T07:58:03;13.57;;;6.80;;
15449;SDS011;7826;49.784;9.934;2023-03-01T08:00:30;14.33;;;7.67;;
15449;SDS011;7826;49.784;9.934;2023-03-01T08:02:58;15.63;;;7.47;;
15449;SDS011;7826;49.784;9.934;2023-03-01T08:05:26;10.23;;;6.20;;
15449;SDS011;7826;49.784;9.934;2023-03-01T08:07:54;10.07;;;6.20;;
15449;SDS011;7826;49.784;9.934;2023-03-01T08:10:20;14.53;;;7.20;;
15449;SDS011;7826;49.784;9.934;2023-03-01T08:12:47;11.07;;;6.47;;
15449;SDS011;7826;49.784;9.934;2023-03-01T08:15:13;13.30;;;6.53;;
15449;SDS011;7826;49.784;9.934;2023-03-01T08:17:39;12.43;;;7.27;;
15449;SDS011;7826;49.784;9.934;2023-03-01T08:20:06;18.07;;;7.07;;
15449;SDS011;7826;49.784;9.934;2023-03-01T08:22:33;11.77;;;7.10;;
15449;SDS011;7826;49.784;9.934;2023-03-01T08:24:59;12.50;;;6.27;;
15449;SDS011;7826;49.784;9.934;2023-03-01T08:27:25;11.07;;;6.70;;
15449;SDS011;7826;49.784;9.934;2023-03-01T08:29:51;9.23;;;6.43;;
15449;SDS011;7826;49.784;9.934;2023-03-01T08:32:18;10.20;;;6.77;;
15449;SDS011;7826;49.784;9.934;2023-03-01T08:34:46;12.27;;;7.10;;
15449;SDS011;7826;49.784;9.934;2023-03-01T08:37:13;11.00;;;7.03;;
15449;SDS011;7826;49.784;9.934;2023-03-01T08:39:39;9.63;;;6.77;;
15449;SDS011;7826;49.784;9.934;2023-03-01T08:42:05;12.30;;;7.30;;
15449;SDS011;7826;49.784;9.934;2023-03-01T08:44:31;9.30;;;6.77;;
15449;SDS011;7826;49.784;9.934;2023-03-01T08:46:58;11.67;;;7.93;;
15449;SDS011;7826;49.784;9.934;2023-03-01T08:49:25;11.50;;;7.47;;
15449;SDS011;7826;49.784;9.934;2023-03-01T08:51:52;12.90;;;7.93;;
15449;SDS011;7826;49.784;9.934;2023-03-01T08:54:19;12.27;;;7.50;;
15449;SDS011;7826;49.784;9.934;2023-03-01T08:56:47;14.37;;;7.87;;
15449;SDS011;7826;49.784;9.934;2023-03-01T08:59:15;9.20;;;6.87;;
15449;SDS011;7826;49.784;9.934;2023-03-01T09:01:42;15.23;;;8.33;;
15449;SDS011;7826;49.784;9.934;2023-03-01T09:04:09;12.70;;;7.87;;
15449;SDS011;7826;49.784;9.934;2023-03-01T09:06:36;9.23;;;7.23;;
15449;SDS011;7826;49.784;9.934;2023-03-01T09:09:03;12.80;;;6.83;;
15449;SDS011;7826;49.784;9.934;2023-03-01T09:11:30;15.97;;;8.93;;
15449;SDS011;7826;49.784;9.934;2023-03-01T09:13:57;13.27;;;8.43;;
15449;SDS011;7826;49.784;9.934;2023-03-01T09:16:23;11.70;;;7.60;;
15449;SDS011;7826;49.784;9.934;2023-03-01T09:18:51;12.87;;;7.87;;
15449;SDS011;7826;49.784;9.934;2023-03-01T09:21:19;11.30;;;7.90;;
15449;SDS011;7826;49.784;9.934;2023-03-01T09:23:48;11.77;;;7.93;;
15449;SDS011;7826;49.784;9.934;2023-03-01T09:26:17;14.17;;;7.90;;
15449;SDS011;7826;49.784;9.934;2023-03-01T09:28:45;12.13;;;7.77;;
15449;SDS011;7826;49.784;9.934;2023-03-01T09:31:13;16.83;;;8.43;;
15449;SDS011;7826;49.784;9.934;2023-03-01T09:33:41;11.13;;;7.70;;
15449;SDS011;7826;49.784;9.934;2023-03-01T09:36:12;10.87;;;7.93;;
15449;SDS011;7826;49.784;9.934;2023-03-01T09:38:40;11.00;;;7.60;;
15449;SDS011;7826;49.784;9.934;2023-03-01T09:41:11;14.23;;;7.97;;
15449;SDS011;7826;49.784;9.934;2023-03-01T09:44:10;12.70;;;7.57;;
15449;SDS011;7826;49.784;9.934;2023-03-01T09:46:49;12.47;;;7.77;;
15449;SDS011;7826;49.784;9.934;2023-03-01T09:49:23;15.50;;;7.87;;
15449;SDS011;7826;49.784;9.934;2023-03-01T09:52:38;14.27;;;7.57;;
15449;SDS011;7826;49.784;9.934;2023-03-01T09:54:46;10.97;;;7.07;;
15449;SDS011;7826;49.784;9.934;2023-03-01T09:59:52;13.80;;;7.93;;
15449;SDS011;7826;49.784;9.934;2023-03-01T10:02:38;10.47;;;6.57;;
15449;SDS011;7826;49.784;9.934;2023-03-01T10:10:37;13.50;;;7.40;;
15449;SDS011;7826;49.784;9.934;2023-03-01T10:13:10;11.33;;;7.00;;
15449;SDS011;7826;49.784;9.934;2023-03-01T10:15:46;13.27;;;7.33;;
15449;SDS011;7826;49.784;9.934;2023-03-01T10:18:22;11.40;;;6.97;;
15449;SDS011;7826;49.784;9.934;2023-03-01T10:20:55;9.80;;;6.33;;
15449;SDS011;7826;49.784;9.934;2023-03-01T10:23:30;12.13;;;6.70;;
15449;SDS011;7826;49.784;9.934;2023-03-01T10:31:12;13.50;;;7.63;;
15449;SDS011;7826;49.784;9.934;2023-03-01T10:33:42;11.87;;;7.57;;
15449;SDS011;7826;49.784;9.934;2023-03-01T10:36:09;13.43;;;7.73;;
15449;SDS011;7826;49.784;9.934;2023-03-01T10:38:53;12.83;;;7.57;;
15449;SDS011;7826;49.784;9.934;2023-03-01T10:41:22;14.03;;;7.07;;
15449;SDS011;7826;49.784;9.934;2023-03-01T10:43:53;15.10;;;7.27;;
15449;SDS011;7826;49.784;9.934;2023-03-01T10:46:25;14.80;;;7.70;;
15449;SDS011;7826;49.784;9.934;2023-03-01T10:51:40;15.37;;;8.33;;
15449;SDS011;7826;49.784;9.934;2023-03-01T10:56:55;12.67;;;7.10;;
15449;SDS011;7826;49.784;9.934;2023-03-01T10:59:30;13.97;;;7.60;;
15449;SDS011;7826;49.784;9.934;2023-03-01T11:07:51;11.30;;;6.87;;
15449;SDS011;7826;49.784;9.934;2023-03-01T11:10:21;11.47;;;6.80;;
15449;SDS011;7826;49.784;9.934;2023-03-01T11:12:47;12.37;;;7.40;;
15449;SDS011;7826;49.784;9.934;2023-03-01T11:15:27;14.53;;;7.37;;
15449;SDS011;7826;49.784;9.934;2023-03-01T11:17:57;16.03;;;8.13;;
15449;SDS011;7826;49.784;9.934;2023-03-01T11:20:35;13.47;;;7.73;;
15449;SDS011;7826;49.784;9.934;2023-03-01T11:23:12;12.30;;;6.80;;
15449;SDS011;7826;49.784;9.934;2023-03-01T11:25:49;13.03;;;6.73;;
15449;SDS011;7826;49.784;9.934;2023-03-01T11:28:21;14.80;;;8.23;;
15449;SDS011;7826;49.784;9.934;2023-03-01T11:30:53;11.67;;;6.57;;
15449;SDS011;7826;49.784;9.934;2023-03-01T11:39:09;11.77;;;6.57;;
15449;SDS011;7826;49.784;9.934;2023-03-01T11:42:00;13.37;;;6.87;;
15449;SDS011;7826;49.784;9.934;2023-03-01T11:44:44;11.10;;;7.17;;
15449;SDS011;7826;49.784;9.934;2023-03-01T11:55:36;8.93;;;6.33;;
15449;SDS011;7826;49.784;9.934;2023-03-01T12:01:29;13.03;;;7.40;;
15449;SDS011;7826;49.784;9.934;2023-03-01T12:07:22;8.90;;;6.33;;
15449;SDS011;7826;49.784;9.934;2023-03-01T12:26:23;12.57;;;7.07;;
15449;SDS011;7826;49.784;9.934;2023-03-01T12:51:32;9.77;;;5.47;;
15449;SDS011;7826;49.784;9.934;2023-03-01T12:54:02;11.83;;;6.90;;
15449;SDS011;7826;49.784;9.934;2023-03-01T12:56:41;10.77;;;6.60;;
15449;SDS011;7826;49.784;9.934;2023-03-01T12:59:21;11.80;;;6.90;;
15449;SDS011;7826;49.784;9.934;2023-03-01T13:05:31;11.07;;;6.57;;
15449;SDS011;7826;49.784;9.934;2023-03-01T13:11:05;12.83;;;7.03;;
15449;SDS011;7826;49.784;9.934;2023-03-01T13:13:40;9.67;;;6.20;;
15449;SDS011;7826;49.784;9.934;2023-03-01T13:16:21;8.23;;;5.87;;
15449;SDS011;7826;49.784;9.934;2023-03-01T13:21:42;11.20;;;6.77;;
15449;SDS011;7826;49.784;9.934;2023-03-01T13:24:27;11.67;;;6.33;;
15449;SDS011;7826;49.784;9.934;2023-03-01T13:32:33;11.37;;;6.57;;
15449;SDS011;7826;49.784;9.934;2023-03-01T13:37:42;9.07;;;4.93;;
15449;SDS011;7826;49.784;9.934;2023-03-01T13:42:43;13.17;;;7.57;;
15449;SDS011;7826;49.784;9.934;2023-03-01T13:45:20;13.00;;;6.60;;
15449;SDS011;7826;49.784;9.934;2023-03-01T13:51:00;13.00;;;6.50;;
15449;SDS011;7826;49.784;9.934;2023-03-01T13:53:29;11.13;;;6.67;;
15449;SDS011;7826;49.784;9.934;2023-03-01T13:56:01;12.40;;;6.70;;
15449;SDS011;7826;49.784;9.934;2023-03-01T13:58:53;11.07;;;6.07;;
15449;SDS011;7826;49.784;9.934;2023-03-01T14:01:33;10.10;;;6.50;;
15449;SDS011;7826;49.784;9.934;2023-03-01T14:04:02;10.17;;;5.80;;
15449;SDS011;7826;49.784;9.934;2023-03-01T14:06:30;10.60;;;6.53;;
15449;SDS011;7826;49.784;9.934;2023-03-01T14:09:03;10.03;;;5.87;;
15449;SDS011;7826;49.784;9.934;2023-03-01T14:14:47;7.90;;;5.53;;
15449;SDS011;7826;49.784;9.934;2023-03-01T14:17:38;12.30;;;6.43;;
15449;SDS011;7826;49.784;9.934;2023-03-01T14:20:19;10.47;;;5.93;;
15449;SDS011;7826;49.784;9.934;2023-03-01T14:22:54;12.30;;;6.40;;
15449;SDS011;7826;49.784;9.934;2023-03-01T14:25:30;10.53;;;6.80;;
15449;SDS011;7826;49.784;9.934;2023-03-01T14:28:18;7.63;;;6.00;;
15449;SDS011;7826;49.784;9.934;2023-03-01T14:30:46;9.53;;;6.23;;
15449;SDS011;7826;49.784;9.934;2023-03-01T14:33:18;9.87;;;5.90;;
15449;SDS011;7826;49.784;9.934;2023-03-01T14:35:54;9.83;;;5.67;;
15449;SDS011;7826;49.784;9.934;2023-03-01T14:38:23;8.60;;;6.03;;
15449;SDS011;7826;49.784;9.934;2023-03-01T14:41:05;12.53;;;6.70;;
15449;SDS011;7826;49.784;9.934;2023-03-01T14:43:37;10.93;;;5.23;;
15449;SDS011;7826;49.784;9.934;2023-03-01T14:46:16;13.00;;;5.83;;
15449;SDS011;7826;49.784;9.934;2023-03-01T14:48:51;10.20;;;5.80;;
15449;SDS011;7826;49.784;9.934;2023-03-01T14:51:20;6.83;;;5.07;;
15449;SDS011;7826;49.784;9.934;2023-03-01T14:53:46;10.17;;;5.80;;
15449;SDS011;7826;49.784;9.934;2023-03-01T14:56:14;9.83;;;6.50;;
15449;SDS011;7826;49.784;9.934;2023-03-01T14:58:43;11.93;;;6.40;;
15449;SDS011;7826;49.784;9.934;2023-03-01T15:01:10;7.97;;;5.23;;
15449;SDS011;7826;49.784;9.934;2023-03-01T15:03:41;8.33;;;5.47;;
15449;SDS011;7826;49.784;9.934;2023-03-01T15:06:09;9.67;;;6.23;;
15449;SDS011;7826;49.784;9.934;2023-03-01T15:08:41;10.17;;;5.63;;
15449;SDS011;7826;49.784;9.934;2023-03-01T15:13:39;10.03;;;5.70;;
15449;SDS011;7826;49.784;9.934;2023-03-01T15:16:13;8.77;;;6.17;;
15449;SDS011;7826;49.784;9.934;2023-03-01T15:19:00;11.77;;;5.80;;
15449;SDS011;7826;49.784;9.934;2023-03-01T15:21:38;10.63;;;5.87;;
15449;SDS011;7826;49.784;9.934;2023-03-01T15:26:49;9.77;;;5.63;;
15449;SDS011;7826;49.784;9.934;2023-03-01T15:29:18;8.43;;;5.10;;
15449;SDS011;7826;49.784;9.934;2023-03-01T15:34:32;8.93;;;4.90;;
15449;SDS011;7826;49.784;9.934;2023-03-01T15:37:03;11.27;;;5.90;;
15449;SDS011;7826;49.784;9.934;2023-03-01T15:47:40;8.93;;;5.03;;
15449;SDS011;7826;49.784;9.934;2023-03-01T15:50:16;11.20;;;5.40;;
15449;SDS011;7826;49.784;9.934;2023-03-01T15:52:46;8.87;;;4.93;;
15449;SDS011;7826;49.784;9.934;2023-03-01T15:57:48;8.73;;;4.90;;
15449;SDS011;7826;49.784;9.934;2023-03-01T16:00:16;8.27;;;4.83;;
15449;SDS011;7826;49.784;9.934;2023-03-01T16:02:43;9.27;;;5.50;;
15449;SDS011;7826;49.784;9.934;2023-03-01T16:05:31;7.77;;;5.20;;
15449;SDS011;7826;49.784;9.934;2023-03-01T16:07:59;9.57;;;5.40;;
15449;SDS011;7826;49.784;9.934;2023-03-01T16:10:26;7.13;;;4.93;;
15449;SDS011;7826;49.784;9.934;2023-03-01T16:12:53;8.57;;;5.93;;
15449;SDS011;7826;49.784;9.934;2023-03-01T16:15:28;9.17;;;5.77;;
15449;SDS011;7826;49.784;9.934;2023-03-01T16:17:55;8.40;;;5.80;;
15449;SDS011;7826;49.784;9.934;2023-03-01T16:20:24;9.03;;;5.80;;
15449;SDS011;7826;49.784;9.934;2023-03-01T16:22:50;9.67;;;5.47;;
15449;SDS011;7826;49.784;9.934;2023-03-01T16:25:19;12.73;;;6.03;;
15449;SDS011;7826;49.784;9.934;2023-03-01T16:27:47;7.97;;;5.40;;
15449;SDS011;7826;49.784;9.934;2023-03-01T16:30:16;9.03;;;5.90;;
15449;SDS011;7826;49.784;9.934;2023-03-01T16:32:46;9.93;;;5.83;;
15449;SDS011;7826;49.784;9.934;2023-03-01T16:35:14;8.33;;;5.97;;
15449;SDS011;7826;49.784;9.934;2023-03-01T16:37:42;9.87;;;5.83;;
15449;SDS011;7826;49.784;9.934;2023-03-01T16:40:30;9.10;;;5.57;;
15449;SDS011;7826;49.784;9.934;2023-03-01T16:42:56;8.87;;;6.20;;
15449;SDS011;7826;49.784;9.934;2023-03-01T16:45:26;10.87;;;5.90;;
15449;SDS011;7826;49.784;9.934;2023-03-01T16:47:53;8.57;;;5.73;;
15449;SDS011;7826;49.784;9.934;2023-03-01T16:50:20;10.60;;;6.30;;
15449;SDS011;7826;49.784;9.934;2023-03-01T16:52:47;10.97;;;5.63;;
15449;SDS011;7826;49.784;9.934;2023-03-01T16:55:13;9.37;;;5.83;;
15449;SDS011;7826;49.784;9.934;2023-03-01T16:57:39;11.57;;;6.10;;
15449;SDS011;7826;49.784;9.934;2023-03-01T17:00:06;9.07;;;6.03;;
15449;SDS011;7826;49.784;9.934;2023-03-01T17:02:39;11.07;;;6.10;;
15449;SDS011;7826;49.784;9.934;2023-03-01T17:05:06;10.53;;;6.03;;
15449;SDS011;7826;49.784;9.934;2023-03-01T17:07:33;9.23;;;6.00;;
15449;SDS011;7826;49.784;9.934;2023-03-01T17:10:00;14.30;;;7.53;;
15449;SDS011;7826;49.784;9.934;2023-03-01T17:12:28;9.87;;;6.30;;
15449;SDS011;7826;49.784;9.934;2023-03-01T17:14:54;10.40;;;6.40;;
15449;SDS011;7826;49.784;9.934;2023-03-01T17:17:20;11.97;;;6.40;;
15449;SDS011;7826;49.784;9.934;2023-03-01T17:19:47;12.33;;;6.27;;
15449;SDS011;7826;49.784;9.934;2023-03-01T17:22:13;10.97;;;6.30;;
15449;SDS011;7826;49.784;9.934;2023-03-01T17:24:41;11.47;;;6.70;;
15449;SDS011;7826;49.784;9.934;2023-03-01T17:27:07;9.00;;;6.70;;
15449;SDS011;7826;49.784;9.934;2023-03-01T17:29:34;11.50;;;6.63;;
15449;SDS011;7826;49.784;9.934;2023-03-01T17:32:01;10.10;;;6.23;;